Time;durP1;ratioP1;P1;durP2;ratioP2;P2;SDS_P1;SDS_P2;PMS_P1;PMS_P2;Temp;Humidity;BMP_temperature;BMP_pressure;BME280_temperature;BME280_humidity;BME280_pressure;Samples;Min_cycle;Max_cycle;Signal;HPM_P1;HPM_P2
2023/09/15 06:28:07;;;;;;;;;;;;;;;;;;;;;
2023/09/15 07:07:41;;;;;;;;;10.25;8.75;;;;;20.02;70.14;101144.91;4924148;28;45553;-66
2023/09/15 07:10:29;;;;;;;;;;;;;;;;;;;;;
2023/09/15 07:12:57;;;;;;;;;11.00;10.25;;;;;19.90;69.73;101138.44;4935753;28;75313;-65
2023/09/15 07:15:32;;;;;;;;;;;;;;;;;;;;;
2023/09/15 07:18:03;;;;;;;;;9.50;8.00;;;;;19.89;70.03;101126.72;4932877;28;67932;-65
2023/09/15 07:21:18;;;;;;;;;6.00;5.00;;;;;20.07;70.47;101150.88;4918740;28;45577;-67
2023/09/15 07:24:00;;;;;;;;;8.75;8.75;;;;;20.15;70.24;101159.38;4892744;28;45655;-65
2023/09/15 07:33:58;;;;;;;;;11.00;8.50;;;;;19.92;70.54;101117.53;4831997;29;45701;-69
2023/09/15 07:55:00;;;;;;;;;7.75;7.75;;;;;20.09;70.76;101102.88;6205220;22;1326637;-87
2023/09/15 07:57:26;;;;;;;;;9.25;8.25;;;;;20.10;71.11;101082.94;6226692;22;45270;-86
2023/09/15 07:59:52;;;;;;;;;9.50;8.75;;;;;20.36;70.79;101124.53;6225639;22;45263;-87
2023/09/15 08:02:18;;;;;;;;;9.75;9.75;;;;;20.35;70.37;101109.25;6225944;22;45423;-87
2023/09/15 08:04:43;;;;;;;;;8.75;8.75;;;;;20.29;70.32;101094.25;6226564;22;46001;-86
2023/09/15 08:07:09;;;;;;;;;9.75;9.50;;;;;20.45;70.44;101104.94;6226758;22;46070;-87
2023/09/15 08:09:34;;;;;;;;;9.50;8.50;;;;;20.57;70.38;101119.50;6226371;22;45280;-86
2023/09/15 08:12:00;;;;;;;;;10.00;10.00;;;;;20.43;70.52;101087.91;6227020;22;45191;-87
2023/09/15 08:14:26;;;;;;;;;12.00;9.75;;;;;20.41;70.71;101078.13;6220449;22;47038;-86
2023/09/15 08:16:51;;;;;;;;;11.75;10.75;;;;;20.71;70.55;101118.56;6226149;22;45398;-86
2023/09/15 08:19:17;;;;;;;;;9.75;9.75;;;;;20.54;70.26;101088.03;6225865;22;45203;-86
2023/09/15 08:21:43;;;;;;;;;8.75;8.75;;;;;20.79;69.73;101109.91;6226143;22;45372;-86
2023/09/15 08:24:08;;;;;;;;;9.00;7.00;;;;;20.82;70.06;101118.69;6224427;22;47958;-86
2023/09/15 08:26:33;;;;;;;;;9.25;8.50;;;;;20.83;70.02;101115.03;6226056;22;47158;-85
2023/09/15 08:28:59;;;;;;;;;9.25;8.25;;;;;20.71;69.73;101092.34;6225962;22;45410;-85
2023/09/15 08:31:26;;;;;;;;;12.75;10.75;;;;;20.90;69.59;101120.88;6227001;22;45159;-81
2023/09/15 08:33:52;;;;;;;;;9.25;9.25;;;;;20.92;69.45;101108.94;6224818;22;47353;-81
2023/09/15 08:36:18;;;;;;;;;9.75;8.25;;;;;20.97;69.56;101121.34;6225462;22;45302;-81
2023/09/15 08:38:43;;;;;;;;;10.00;9.25;;;;;20.92;70.21;101108.94;6226901;22;44751;-81
2023/09/15 08:41:20;;;;;;;;;11.00;9.25;;;;;21.07;70.00;101127.84;6225359;22;45222;-81
2023/09/15 08:43:46;;;;;;;;;8.00;8.00;;;;;21.12;69.81;101125.66;6247826;22;49498;-81
2023/09/15 08:46:12;;;;;;;;;9.50;7.75;;;;;21.12;69.72;101122.06;6224698;22;45235;-82
2023/09/15 08:48:46;;;;;;;;;8.25;7.50;;;;;21.07;69.39;101103.41;6226861;22;45195;-81
2023/09/15 08:51:12;;;;;;;;;10.50;9.75;;;;;21.16;69.31;101119.03;6249976;22;45325;-83
2023/09/15 08:53:39;;;;;;;;;10.00;10.00;;;;;21.19;69.30;101116.09;6250263;22;48160;-85
2023/09/15 08:56:05;;;;;;;;;9.25;9.25;;;;;21.26;69.34;101113.81;6243421;22;45354;-87
2023/09/15 08:58:32;;;;;;;;;10.00;9.00;;;;;21.35;68.33;101126.75;6218026;22;45442;-86
2023/09/15 09:00:59;;;;;;;;;11.50;10.50;;;;;21.22;69.33;101102.31;6216885;22;45270;-83
2023/09/15 09:03:24;;;;;;;;;9.75;7.50;;;;;21.42;69.37;101122.59;6219733;22;45242;-81
2023/09/15 09:05:51;;;;;;;;;9.75;9.75;;;;;21.50;68.86;101123.91;6217232;22;45595;-82
2023/09/15 09:08:21;;;;;;;;;9.50;8.75;;;;;21.52;68.51;101121.97;6219638;22;45152;-82
2023/09/15 09:10:48;;;;;;;;;8.75;7.00;;;;;21.49;68.26;101120.34;6216044;22;46037;-84
2023/09/15 09:13:14;;;;;;;;;9.50;8.75;;;;;21.56;68.96;101120.78;6242075;22;47486;-84
2023/09/15 09:15:40;;;;;;;;;9.75;9.75;;;;;21.60;68.32;101115.00;6218312;22;45270;-84
2023/09/15 09:18:16;;;;;;;;;9.00;8.00;;;;;21.66;68.82;101116.41;6220864;22;45298;-83
2023/09/15 09:20:42;;;;;;;;;13.50;13.50;;;;;21.70;68.93;101109.78;6219383;22;45329;-83
2023/09/15 09:23:09;;;;;;;;;8.75;8.75;;;;;21.79;68.66;101122.66;6220373;22;46236;-83
2023/09/15 09:25:35;;;;;;;;;8.00;8.00;;;;;21.81;68.42;101107.09;6217316;22;45796;-83
2023/09/15 09:28:01;;;;;;;;;7.75;7.50;;;;;21.87;68.28;101105.81;6243548;22;45330;-83
2023/09/15 09:30:29;;;;;;;;;9.50;8.75;;;;;21.79;67.84;101075.63;6214112;22;45217;-83
2023/09/15 09:33:00;;;;;;;;;10.25;7.00;;;;;21.99;68.30;101110.31;6216315;22;47264;-83
2023/09/15 09:35:26;;;;;;;;;8.75;8.75;;;;;22.04;68.14;101111.84;6216970;22;45236;-83
2023/09/15 09:37:56;;;;;;;;;8.50;8.50;;;;;21.99;67.98;101093.16;6219597;22;45150;-83
2023/09/15 09:40:22;;;;;;;;;9.25;7.50;;;;;22.13;67.74;101097.53;6219919;22;45401;-82
2023/09/15 09:42:49;;;;;;;;;9.75;9.50;;;;;22.14;68.56;101097.41;6220652;22;46072;-82
2023/09/15 09:45:15;;;;;;;;;8.25;8.25;;;;;22.14;68.62;101075.66;6218982;22;45421;-83
2023/09/15 09:47:42;;;;;;;;;10.50;8.50;;;;;22.27;67.86;101091.03;6219493;22;45565;-82
2023/09/15 09:50:10;;;;;;;;;13.50;10.75;;;;;22.33;67.19;101090.63;6219083;22;45277;-82
2023/09/15 09:52:36;;;;;;;;;11.00;9.75;;;;;22.37;66.67;101101.16;6219546;22;45250;-83
2023/09/15 09:55:04;;;;;;;;;11.00;8.75;;;;;22.33;67.69;101085.19;6218631;22;45382;-83
2023/09/15 09:57:30;;;;;;;;;10.75;9.50;;;;;22.37;67.21;101075.81;6218430;22;45603;-83
2023/09/15 09:59:56;;;;;;;;;9.25;7.75;;;;;22.52;67.75;101092.78;6216232;22;45522;-83
2023/09/15 10:02:22;;;;;;;;;9.75;8.50;;;;;22.57;67.40;101091.44;6212837;22;47085;-83
2023/09/15 10:04:47;;;;;;;;;10.50;8.25;;;;;22.64;67.60;101080.97;6213197;22;45337;-83
2023/09/15 10:07:12;;;;;;;;;8.25;8.25;;;;;22.74;67.05;101087.41;6217248;22;45298;-83
2023/09/15 10:09:39;;;;;;;;;7.75;6.50;;;;;22.82;66.74;101086.81;6220110;22;44817;-83
2023/09/15 10:12:05;;;;;;;;;14.00;11.00;;;;;22.74;65.78;101062.91;6218549;22;47049;-83
2023/09/15 10:14:31;;;;;;;;;7.75;7.75;;;;;22.74;65.63;101053.91;6218101;22;45346;-81
2023/09/15 10:16:58;;;;;;;;;9.50;8.50;;;;;22.80;65.52;101060.69;6243573;22;45284;-84
2023/09/15 10:19:25;;;;;;;;;10.25;9.00;;;;;22.84;66.41;101057.63;6219863;22;45291;-85
2023/09/15 10:21:51;;;;;;;;;10.00;10.00;;;;;22.97;66.45;101067.53;6217843;22;47655;-85
2023/09/15 10:24:17;;;;;;;;;7.25;7.25;;;;;22.98;65.32;101055.66;6218223;22;45589;-87
2023/09/15 10:26:42;;;;;;;;;8.25;7.75;;;;;23.12;66.13;101069.94;6220603;22;45182;-86
2023/09/15 10:29:11;;;;;;;;;6.75;6.25;;;;;23.14;65.89;101061.63;6220024;22;45194;-86
2023/09/15 10:31:39;;;;;;;;;7.00;7.00;;;;;23.15;64.88;101048.88;6219338;22;46040;-86
2023/09/15 10:34:05;;;;;;;;;7.50;7.50;;;;;23.34;65.08;101060.03;6215831;22;45258;-86
2023/09/15 10:36:32;;;;;;;;;9.75;8.75;;;;;23.25;64.67;101033.53;6222794;22;45884;-85
2023/09/15 10:38:58;;;;;;;;;6.25;5.25;;;;;23.41;64.34;101057.66;6223606;22;44816;-86
2023/09/15 10:41:29;;;;;;;;;8.25;7.75;;;;;23.45;64.10;101045.50;6217475;22;45191;-85
2023/09/15 10:43:55;;;;;;;;;6.75;6.75;;;;;23.39;64.50;101024.22;6242801;22;45585;-85
2023/09/15 10:46:20;;;;;;;;;9.00;9.00;;;;;23.51;65.40;101027.81;6218336;22;45290;-85
2023/09/15 10:48:47;;;;;;;;;8.25;8.00;;;;;23.62;64.24;101034.09;6217726;22;45518;-86
2023/09/15 10:51:16;;;;;;;;;8.25;8.25;;;;;23.69;64.37;101037.19;6220367;22;46132;-85
2023/09/15 10:53:46;;;;;;;;;8.50;6.75;;;;;23.77;64.70;101031.06;6219276;22;45208;-85
2023/09/15 10:56:13;;;;;;;;;6.00;6.00;;;;;23.57;63.36;100990.03;6242601;22;44943;-86
2023/09/15 10:58:40;;;;;;;;;6.75;6.75;;;;;23.75;63.09;101003.94;6219044;22;45326;-83
2023/09/15 11:01:06;;;;;;;;;8.00;7.00;;;;;23.82;62.70;101015.22;6219753;22;45285;-82
2023/09/15 11:03:31;;;;;;;;;7.00;6.75;;;;;23.80;63.10;101007.16;6220506;22;45233;-82
2023/09/15 11:05:58;;;;;;;;;6.50;6.25;;;;;23.85;62.90;100998.63;6219941;22;45333;-82
2023/09/15 11:08:25;;;;;;;;;5.00;5.00;;;;;23.97;62.29;100999.44;6242611;22;45357;-82
2023/09/15 11:11:04;;;;;;;;;6.00;6.00;;;;;24.02;61.90;100999.91;6218828;22;46056;-82
2023/09/15 11:13:29;;;;;;;;;8.75;8.50;;;;;24.03;61.44;100988.88;6218886;22;45691;-82
2023/09/15 11:15:55;;;;;;;;;4.50;4.25;;;;;24.13;61.64;100988.09;6218591;22;45253;-82
2023/09/15 11:18:20;;;;;;;;;10.00;8.50;;;;;24.22;60.71;100990.91;6218722;22;45578;-83
2023/09/15 11:20:46;;;;;;;;;5.50;5.50;;;;;24.20;60.48;100981.97;6218819;22;45243;-82
2023/09/15 11:23:11;;;;;;;;;5.75;5.75;;;;;24.25;60.48;100980.72;6220187;22;45120;-82
2023/09/15 11:25:36;;;;;;;;;5.25;5.25;;;;;24.33;60.93;100984.50;6217975;22;45222;-82
2023/09/15 11:28:03;;;;;;;;;6.50;6.50;;;;;24.40;60.61;100988.41;6217233;22;45229;-82
2023/09/15 11:30:29;;;;;;;;;7.00;6.00;;;;;24.47;60.49;100977.84;6219796;22;45881;-83
2023/09/15 11:32:57;;;;;;;;;4.25;4.25;;;;;24.55;59.96;100982.66;6218494;22;44842;-83
2023/09/15 11:35:24;;;;;;;;;7.50;6.00;;;;;24.49;59.64;100955.88;6218184;22;45364;-83
2023/09/15 11:37:51;;;;;;;;;9.25;5.75;;;;;24.67;60.63;100973.38;6219689;22;45290;-83
2023/09/15 11:40:21;;;;;;;;;7.50;7.50;;;;;24.57;59.26;100940.63;6219085;22;45400;-83
2023/09/15 11:42:54;;;;;;;;;5.00;5.00;;;;;24.70;59.43;100954.00;6244869;22;45325;-83
2023/09/15 11:45:21;;;;;;;;;5.00;5.00;;;;;24.83;59.26;100961.97;6217364;22;45275;-84
2023/09/15 11:47:47;;;;;;;;;6.25;6.25;;;;;24.84;58.75;100949.19;6219485;22;45252;-83
2023/09/15 11:50:13;;;;;;;;;5.50;5.50;;;;;24.81;58.44;100944.00;6242746;22;47355;-83
2023/09/15 11:52:40;;;;;;;;;4.75;4.75;;;;;24.95;56.82;100960.00;6241732;22;45387;-82
2023/09/15 11:55:20;;;;;;;;;5.00;5.00;;;;;24.99;56.77;100963.34;6216480;22;45538;-83
2023/09/15 11:57:45;;;;;;;;;5.00;5.00;;;;;24.96;57.02;100946.22;6219363;22;45305;-82
2023/09/15 12:00:14;;;;;;;;;4.00;4.00;;;;;25.07;56.31;100952.59;6217054;22;45262;-82
2023/09/15 12:02:40;;;;;;;;;3.00;2.50;;;;;25.07;56.44;100938.94;6243891;22;45262;-82
2023/09/15 12:05:05;;;;;;;;;4.75;4.75;;;;;25.11;55.79;100940.41;6217309;22;45240;-82
2023/09/15 12:07:31;;;;;;;;;5.50;4.00;;;;;25.08;56.24;100921.56;6212228;22;45322;-81
2023/09/15 12:09:56;;;;;;;;;5.25;5.25;;;;;25.15;57.01;100925.44;6215324;22;45338;-82
2023/09/15 12:12:22;;;;;;;;;5.75;5.75;;;;;25.22;54.97;100931.22;6214197;22;45347;-81
2023/09/15 12:14:47;;;;;;;;;6.25;4.50;;;;;25.29;54.23;100930.53;6212721;22;45495;-82
2023/09/15 12:17:15;;;;;;;;;4.25;4.25;;;;;25.29;53.88;100925.09;6214800;22;45299;-80
2023/09/15 12:19:40;;;;;;;;;3.50;2.50;;;;;25.31;53.82;100919.47;6215079;22;47074;-80
2023/09/15 12:22:06;;;;;;;;;3.75;3.75;;;;;25.31;53.56;100919.47;6215981;22;45278;-80
2023/09/15 12:24:31;;;;;;;;;3.00;3.00;;;;;25.35;53.39;100923.66;6212987;22;45453;-81
2023/09/15 12:27:00;;;;;;;;;5.00;3.50;;;;;25.40;52.62;100918.63;6214489;22;45345;-81
2023/09/15 12:29:27;;;;;;;;;3.00;3.00;;;;;25.43;52.67;100912.88;6214908;22;45382;-81
2023/09/15 12:31:52;;;;;;;;;3.00;3.00;;;;;25.39;53.43;100903.22;6215467;22;45691;-82
2023/09/15 12:34:20;;;;;;;;;3.25;3.25;;;;;25.48;52.82;100907.84;6216489;22;45357;-82
2023/09/15 12:36:51;;;;;;;;;6.50;4.25;;;;;25.50;51.54;100904.97;6215573;22;45346;-83
2023/09/15 12:39:17;;;;;;;;;4.25;4.25;;;;;25.45;52.38;100901.78;6214881;22;45272;-82
2023/09/15 12:41:43;;;;;;;;;5.00;5.00;;;;;25.57;51.48;100914.31;6215853;22;45235;-83
2023/09/15 12:44:10;;;;;;;;;4.50;3.25;;;;;25.62;52.30;100908.41;6213495;22;45280;-82
2023/09/15 12:46:35;;;;;;;;;3.00;3.00;;;;;25.64;52.09;100903.66;6218341;22;45289;-83
2023/09/15 12:49:00;;;;;;;;;5.00;4.00;;;;;25.59;51.42;100892.31;6215612;22;45224;-82
2023/09/15 12:51:26;;;;;;;;;5.00;3.75;;;;;25.57;51.58;100880.66;6215204;22;47458;-83
2023/09/15 12:53:51;;;;;;;;;5.00;4.00;;;;;25.64;51.69;100885.41;6213532;22;45410;-81
2023/09/15 12:56:16;;;;;;;;;4.00;4.00;;;;;25.64;51.68;100870.88;6214807;22;45345;-81
2023/09/15 12:58:42;;;;;;;;;5.00;5.00;;;;;25.71;52.04;100880.22;6215342;22;55313;-81
2023/09/15 13:01:07;;;;;;;;;5.75;4.50;;;;;25.65;52.42;100869.88;6217641;22;45262;-82
2023/09/15 13:03:33;;;;;;;;;2.00;2.00;;;;;25.64;51.03;100866.28;6214365;22;45472;-82
2023/09/15 13:05:58;;;;;;;;;4.00;4.00;;;;;25.67;50.97;100868.69;6213861;22;45653;-81
2023/09/15 13:08:23;;;;;;;;;4.25;3.25;;;;;25.74;51.03;100873.59;6215743;22;48740;-81
2023/09/15 13:10:49;;;;;;;;;4.25;4.25;;;;;25.78;50.17;100875.06;6215358;22;45546;-82
2023/09/15 13:13:14;;;;;;;;;3.25;3.25;;;;;25.73;50.74;100864.53;6216864;22;45361;-81
2023/09/15 13:15:40;;;;;;;;;4.25;4.25;;;;;25.79;50.38;100874.88;6214849;22;45342;-83
2023/09/15 13:18:06;;;;;;;;;3.50;3.50;;;;;25.65;50.31;100839.81;6215126;22;46835;-82
2023/09/15 13:20:32;;;;;;;;;3.00;3.00;;;;;25.79;50.93;100860.34;6216305;22;45485;-82
2023/09/15 13:22:57;;;;;;;;;4.25;3.75;;;;;25.80;50.92;100854.75;6214274;22;45350;-82
2023/09/15 13:25:22;;;;;;;;;2.50;2.50;;;;;25.87;50.89;100858.59;6216086;22;45440;-82
2023/09/15 13:27:48;;;;;;;;;4.00;3.00;;;;;25.81;50.55;100841.91;6213933;22;46848;-82
2023/09/15 13:30:13;;;;;;;;;3.00;3.00;;;;;25.90;49.00;100862.94;6216344;22;45210;-82
2023/09/15 13:32:39;;;;;;;;;2.00;2.00;;;;;25.85;49.76;100851.56;6214362;22;45278;-81
2023/09/15 13:35:05;;;;;;;;;2.75;2.75;;;;;25.91;49.14;100861.03;6215128;22;45331;-82
2023/09/15 13:37:30;;;;;;;;;3.00;3.00;;;;;25.86;49.21;100837.75;6215917;22;45378;-82
2023/09/15 13:39:56;;;;;;;;;4.00;3.50;;;;;25.94;48.43;100838.88;6215641;22;45708;-82
2023/09/15 13:42:33;;;;;;;;;2.75;2.75;;;;;25.89;48.51;100826.53;6216528;22;45911;-82
2023/09/15 13:44:59;;;;;;;;;3.00;3.00;;;;;25.88;48.38;100818.47;6214227;22;45632;-82
2023/09/15 13:47:29;;;;;;;;;3.50;3.50;;;;;25.91;48.24;100811.81;6214593;22;48066;-82
2023/09/15 13:49:55;;;;;;;;;2.25;2.25;;;;;25.97;47.56;100814.88;6215863;22;45513;-82
2023/09/15 13:52:20;;;;;;;;;4.00;4.00;;;;;25.94;47.81;100806.91;6216187;22;45715;-82
2023/09/15 13:54:46;;;;;;;;;3.75;3.75;;;;;26.06;47.69;100818.56;6213314;22;52759;-82
2023/09/15 13:57:11;;;;;;;;;3.75;3.75;;;;;26.05;47.70;100814.97;6216416;22;45378;-82
2023/09/15 13:59:36;;;;;;;;;3.00;3.00;;;;;26.09;46.75;100822.91;6214180;22;45530;-81
2023/09/15 14:02:02;;;;;;;;;2.25;2.25;;;;;26.02;47.09;100798.88;6216165;22;46947;-82
2023/09/15 14:04:27;;;;;;;;;3.25;3.25;;;;;26.08;46.52;100808.38;6213239;22;45468;-82
2023/09/15 14:06:52;;;;;;;;;3.75;3.00;;;;;26.06;46.18;100793.94;6215169;22;46248;-81
2023/09/15 14:09:18;;;;;;;;;2.25;2.25;;;;;26.15;45.98;100805.91;6213272;22;45341;-80
2023/09/15 14:11:45;;;;;;;;;4.00;2.25;;;;;26.16;45.93;100805.75;6216731;22;45319;-83
2023/09/15 14:14:10;;;;;;;;;4.25;3.50;;;;;26.21;46.32;100797.94;6215611;22;45671;-82
2023/09/15 14:16:36;;;;;;;;;0.25;0.25;;;;;26.20;45.58;100789.91;6217034;22;45538;-83
2023/09/15 14:19:02;;;;;;;;;4.00;3.00;;;;;26.24;46.28;100792.19;6219050;22;45204;-82
2023/09/15 14:21:28;;;;;;;;;2.75;2.75;;;;;26.22;45.30;100794.19;6219702;22;45234;-83
2023/09/15 14:23:54;;;;;;;;;3.00;3.00;;;;;26.28;45.88;100789.13;6214553;22;45356;-83
2023/09/15 14:26:19;;;;;;;;;3.00;3.00;;;;;26.31;45.51;100800.66;6214466;22;48168;-83
2023/09/15 14:28:45;;;;;;;;;4.25;3.75;;;;;26.22;45.34;100763.25;6216685;22;45272;-83
2023/09/15 14:31:10;;;;;;;;;3.00;3.00;;;;;26.41;45.00;100784.16;6220653;22;45290;-83
2023/09/15 14:33:35;;;;;;;;;3.00;2.25;;;;;26.36;45.50;100779.16;6220653;22;45219;-83
2023/09/15 14:36:01;;;;;;;;;3.50;2.25;;;;;26.43;44.83;100787.63;6218037;22;50890;-83
2023/09/15 14:38:26;;;;;;;;;3.00;3.00;;;;;26.40;45.10;100782.47;6216541;22;51608;-82
2023/09/15 14:40:51;;;;;;;;;5.00;3.00;;;;;26.34;45.27;100763.91;6220754;22;45518;-83
2023/09/15 14:43:16;;;;;;;;;3.25;2.75;;;;;26.43;44.73;100777.53;6219109;22;49331;-83
2023/09/15 14:45:42;;;;;;;;;2.00;2.00;;;;;26.37;44.75;100767.19;6217019;22;45302;-83
2023/09/15 14:48:07;;;;;;;;;3.00;3.00;;;;;26.41;44.14;100768.63;6220188;22;45223;-83
2023/09/15 14:50:33;;;;;;;;;3.25;1.50;;;;;26.46;44.95;100781.81;6219125;22;45654;-83
2023/09/15 14:52:59;;;;;;;;;3.50;2.75;;;;;26.37;44.46;100767.19;6219913;22;45472;-83
2023/09/15 14:55:26;;;;;;;;;5.50;4.50;;;;;26.39;44.96;100764.31;6217338;22;47396;-84
2023/09/15 14:57:51;;;;;;;;;4.00;4.00;;;;;26.40;44.92;100755.09;6244097;22;46017;-82
2023/09/15 15:00:16;;;;;;;;;1.75;1.75;;;;;26.41;44.68;100754.94;6221084;22;45229;-82
2023/09/15 15:02:42;;;;;;;;;3.25;3.25;;;;;26.40;44.76;100755.09;6219666;22;45392;-82
2023/09/15 15:05:07;;;;;;;;;1.75;1.75;;;;;26.38;45.18;100752.50;6217851;22;46032;-84
2023/09/15 15:07:33;;;;;;;;;3.50;2.75;;;;;26.42;45.41;100750.31;6217656;22;46075;-83
2023/09/15 15:09:58;;;;;;;;;3.25;3.25;;;;;26.31;45.63;100740.47;6220325;22;45405;-84
2023/09/15 15:12:23;;;;;;;;;3.00;3.00;;;;;26.33;45.47;100737.53;6218975;22;45353;-83
2023/09/15 15:14:49;;;;;;;;;3.75;3.00;;;;;26.48;45.84;100757.03;6212626;22;45235;-83
2023/09/15 15:17:16;;;;;;;;;4.00;3.25;;;;;26.37;45.95;100744.44;6215898;22;45208;-83
2023/09/15 15:19:44;;;;;;;;;4.75;3.25;;;;;26.38;45.92;100738.81;6217005;22;45344;-83
2023/09/15 15:22:10;;;;;;;;;3.25;2.75;;;;;26.43;45.97;100750.16;6217276;22;45325;-83
2023/09/15 15:24:35;;;;;;;;;3.50;3.50;;;;;26.43;45.91;100747.44;6216722;22;45265;-83
2023/09/15 15:27:01;;;;;;;;;5.25;3.50;;;;;26.32;46.19;100720.28;6218499;22;45380;-83
2023/09/15 15:29:26;;;;;;;;;5.00;5.00;;;;;26.31;46.45;100718.56;6218400;22;45538;-83
2023/09/15 15:31:54;;;;;;;;;4.50;4.50;;;;;26.42;47.36;100737.50;6218469;22;45506;-83
2023/09/15 15:34:20;;;;;;;;;6.75;4.00;;;;;26.41;46.75;100729.44;6215817;22;45411;-83
2023/09/15 15:36:45;;;;;;;;;3.25;3.25;;;;;26.30;46.24;100722.31;6217142;22;45674;-87
2023/09/15 15:39:11;;;;;;;;;3.00;2.50;;;;;26.39;46.48;100726.84;6219263;22;45266;-83
2023/09/15 15:41:36;;;;;;;;;3.00;3.00;;;;;26.38;46.34;100730.63;6243689;22;45905;-83
2023/09/15 15:44:01;;;;;;;;;4.00;4.00;;;;;26.33;45.88;100726.59;6217078;22;46223;-83
2023/09/15 15:46:27;;;;;;;;;3.00;3.00;;;;;26.27;46.50;100706.19;6216858;22;45254;-83
2023/09/15 15:48:52;;;;;;;;;5.25;5.00;;;;;26.32;46.33;100714.78;6219469;22;45241;-83
2023/09/15 15:51:18;;;;;;;;;2.50;2.50;;;;;26.36;46.37;100726.28;6216802;22;45281;-83
2023/09/15 15:53:43;;;;;;;;;3.00;3.00;;;;;26.39;45.83;100732.31;6216989;22;51884;-83
2023/09/15 15:56:08;;;;;;;;;4.00;3.00;;;;;26.30;45.92;100715.97;6216621;22;54692;-83
2023/09/15 15:58:34;;;;;;;;;2.00;2.00;;;;;26.38;46.09;100727.88;6218959;22;45250;-83
2023/09/15 16:01:00;;;;;;;;;5.00;4.00;;;;;26.32;46.15;100714.78;6219111;22;45275;-83
2023/09/15 16:03:26;;;;;;;;;4.00;4.00;;;;;26.42;45.79;100731.16;6217055;22;46284;-83
2023/09/15 16:05:56;;;;;;;;;3.50;2.75;;;;;26.33;45.89;100715.66;6219552;22;45475;-83
2023/09/15 16:08:22;;;;;;;;;4.00;4.00;;;;;26.33;45.50;100712.91;6244430;22;45346;-83
2023/09/15 16:10:48;;;;;;;;;3.00;3.00;;;;;26.37;45.47;100709.72;6219629;22;45374;-83
2023/09/15 16:13:13;;;;;;;;;2.00;2.00;;;;;26.42;44.91;100723.81;6219720;22;45251;-83
2023/09/15 16:15:38;;;;;;;;;3.00;3.00;;;;;26.40;45.19;100717.63;6220304;22;45404;-83
2023/09/15 16:18:08;;;;;;;;;3.00;3.00;;;;;26.46;44.81;100718.88;6219799;22;45195;-83
2023/09/15 16:20:37;;;;;;;;;5.50;4.25;;;;;26.38;44.63;100707.84;6242453;22;45312;-83
2023/09/15 16:23:07;;;;;;;;;5.00;4.00;;;;;26.39;45.18;100710.41;6216985;22;47721;-83
2023/09/15 16:25:34;;;;;;;;;2.25;2.25;;;;;26.48;45.10;100725.09;6218156;22;45268;-84
2023/09/15 16:27:59;;;;;;;;;4.00;2.75;;;;;26.46;45.01;100716.13;6219356;22;45282;-83
2023/09/15 16:30:24;;;;;;;;;4.00;4.00;;;;;26.44;44.86;100718.19;6220299;22;45273;-83
2023/09/15 16:32:50;;;;;;;;;2.75;2.75;;;;;26.43;44.33;100708.28;6219911;22;45231;-84
2023/09/15 16:35:15;;;;;;;;;3.00;3.00;;;;;26.45;43.86;100708.97;6220326;22;45409;-83
2023/09/15 16:37:41;;;;;;;;;3.00;3.00;;;;;26.51;44.11;100712.94;6221095;22;45121;-83
2023/09/15 16:40:07;;;;;;;;;3.00;3.00;;;;;26.48;44.36;100711.41;6218938;22;45227;-83
2023/09/15 16:42:32;;;;;;;;;4.00;4.00;;;;;26.45;44.30;100692.53;6218705;22;47370;-84
2023/09/15 16:44:58;;;;;;;;;3.00;3.00;;;;;26.55;44.00;100708.91;6218703;22;44791;-84
2023/09/15 16:47:29;;;;;;;;;2.50;2.50;;;;;26.46;43.57;100696.13;6219514;22;49665;-84
2023/09/15 16:49:54;;;;;;;;;3.00;3.00;;;;;26.41;43.16;100692.00;6221590;22;45554;-84
2023/09/15 16:52:19;;;;;;;;;6.00;3.75;;;;;26.42;43.03;100692.84;6219666;22;51779;-85
2023/09/15 16:54:45;;;;;;;;;4.25;2.25;;;;;26.47;43.15;100709.66;6220725;22;45197;-85
2023/09/15 16:57:10;;;;;;;;;3.50;3.50;;;;;26.40;43.61;100695.75;6219803;22;45160;-86
2023/09/15 16:59:36;;;;;;;;;2.25;2.25;;;;;26.46;43.14;100709.81;6218899;22;47333;-85
2023/09/15 17:02:01;;;;;;;;;2.00;2.00;;;;;26.52;43.07;100712.81;6218842;22;46463;-85
2023/09/15 17:04:27;;;;;;;;;2.75;2.75;;;;;26.53;43.34;100720.00;6219729;22;45260;-82
2023/09/15 17:06:53;;;;;;;;;4.00;4.00;;;;;26.55;43.99;100723.44;6221672;22;45355;-81
2023/09/15 17:09:19;;;;;;;;;3.00;3.00;;;;;26.44;43.56;100715.44;6219648;22;45217;-82
2023/09/15 17:11:44;;;;;;;;;2.00;2.00;;;;;26.49;43.21;100721.31;6219589;22;47987;-83
2023/09/15 17:14:09;;;;;;;;;3.00;3.00;;;;;26.49;43.54;100724.06;6219518;22;45317;-83
2023/09/15 17:16:35;;;;;;;;;4.00;4.00;;;;;26.36;43.62;100704.41;6245554;22;45223;-83
2023/09/15 17:19:00;;;;;;;;;3.50;3.25;;;;;26.47;43.85;100717.03;6221058;22;44767;-83
2023/09/15 17:21:26;;;;;;;;;6.50;4.00;;;;;26.50;43.46;100727.66;6220693;22;47779;-83
2023/09/15 17:23:51;;;;;;;;;3.00;3.00;;;;;26.37;43.34;100712.47;6219835;22;45287;-83
2023/09/15 17:26:16;;;;;;;;;4.00;4.00;;;;;26.46;43.97;100727.09;6221127;22;45374;-83
2023/09/15 17:28:42;;;;;;;;;4.00;4.00;;;;;26.40;43.86;100722.25;6220309;22;45321;-83
2023/09/15 17:31:08;;;;;;;;;4.00;4.00;;;;;26.45;44.04;100722.66;6221945;22;45280;-83
2023/09/15 17:33:34;;;;;;;;;4.50;4.50;;;;;26.42;43.92;100720.22;6220124;22;45121;-83
2023/09/15 17:36:00;;;;;;;;;5.25;4.75;;;;;26.36;43.54;100715.34;6222743;22;45365;-83
2023/09/15 17:38:25;;;;;;;;;6.50;4.25;;;;;26.31;44.74;100715.84;6221195;22;45123;-83
2023/09/15 17:40:51;;;;;;;;;6.00;6.00;;;;;26.32;45.03;100725.75;6221625;22;45172;-83
2023/09/15 17:43:16;;;;;;;;;6.25;5.25;;;;;26.36;45.52;100727.19;6221134;22;45450;-83
2023/09/15 17:45:42;;;;;;;;;7.25;6.25;;;;;26.30;44.94;100722.31;6219703;22;45205;-83
2023/09/15 17:48:07;;;;;;;;;5.25;5.25;;;;;26.31;45.42;100736.84;6222033;22;45436;-83
2023/09/15 17:50:32;;;;;;;;;6.50;5.25;;;;;26.12;45.15;100722.25;6221584;22;45183;-83
2023/09/15 17:52:58;;;;;;;;;8.00;7.25;;;;;26.20;45.37;100732.44;6221470;22;45191;-83
2023/09/15 17:55:23;;;;;;;;;5.75;5.75;;;;;26.22;45.00;100733.16;6222000;22;45171;-82
2023/09/15 17:57:50;;;;;;;;;5.75;5.75;;;;;26.23;45.25;100751.28;6246155;22;45220;-83
2023/09/15 18:00:17;;;;;;;;;4.50;4.50;;;;;26.21;45.76;100754.19;6222668;22;47386;-82
2023/09/15 18:02:43;;;;;;;;;5.75;5.75;;;;;26.19;45.38;100747.97;6220422;22;45410;-83
2023/09/15 18:05:10;;;;;;;;;6.50;6.00;;;;;26.19;46.05;100758.06;6221863;22;45295;-83
2023/09/15 18:07:35;;;;;;;;;5.25;5.25;;;;;26.16;45.96;100759.25;6223230;22;45183;-82
2023/09/15 18:10:01;;;;;;;;;5.00;5.00;;;;;26.12;46.57;100760.53;6221926;22;46169;-83
2023/09/15 18:12:27;;;;;;;;;5.75;5.00;;;;;26.09;46.67;100768.19;6218897;22;45369;-82
2023/09/15 18:14:53;;;;;;;;;5.75;5.00;;;;;26.02;46.74;100763.31;6218875;22;45212;-83
2023/09/15 18:17:19;;;;;;;;;5.50;5.25;;;;;26.01;46.13;100758.00;6222162;22;45369;-83
2023/09/15 18:19:45;;;;;;;;;6.25;5.00;;;;;25.93;46.36;100746.91;6221025;22;46055;-83
2023/09/15 18:22:10;;;;;;;;;7.25;7.25;;;;;25.92;46.39;100751.53;6219941;22;45220;-83
2023/09/15 18:24:36;;;;;;;;;8.00;7.00;;;;;25.91;47.24;100748.94;6220008;22;45301;-83
2023/09/15 18:27:02;;;;;;;;;5.50;5.50;;;;;25.85;47.23;100739.47;6219735;22;45290;-83
2023/09/15 18:29:28;;;;;;;;;7.50;6.75;;;;;25.84;46.49;100745.94;6221061;22;45219;-83
2023/09/15 18:31:54;;;;;;;;;7.50;7.50;;;;;25.81;46.62;100732.56;6220366;22;45201;-83
2023/09/15 18:34:20;;;;;;;;;27.25;26.25;;;;;25.73;47.51;100730.59;6221118;22;45454;-83
2023/09/15 18:36:45;;;;;;;;;11.00;10.00;;;;;25.63;46.80;100716.94;6221541;22;45202;-83
2023/09/15 18:39:10;;;;;;;;;15.50;13.50;;;;;25.50;47.60;100700.00;6245250;22;47040;-83
2023/09/15 18:41:36;;;;;;;;;11.75;11.50;;;;;25.56;48.10;100718.56;6221318;22;45471;-83
2023/09/15 18:44:02;;;;;;;;;11.50;10.25;;;;;25.54;48.46;100717.81;6218518;22;45172;-83
2023/09/15 18:46:28;;;;;;;;;10.00;9.75;;;;;25.49;48.08;100720.13;6221585;22;45313;-83
2023/09/15 18:48:54;;;;;;;;;9.50;9.50;;;;;25.47;48.51;100723.00;6221520;22;45877;-83
2023/09/15 18:51:19;;;;;;;;;8.50;8.25;;;;;25.49;48.06;100736.53;6219757;22;45422;-83
2023/09/15 18:53:47;;;;;;;;;11.00;9.75;;;;;25.38;48.35;100723.91;6220091;22;45176;-83